Weather History for Alexander City, AL

Change the Weather History Date:

Saturday, March 2, 2013

  Actual Average (KAUO) Record (KAUO)
Temperature  
Mean Temperature 40 °F -  
Max Temperature 42 °F - 79 °F (2012)
Min Temperature 37 °F - 18 °F (1980)
Degree Days  
Heating Degree Days 26    
Month to date heating degree days  
Since 1 July heating degree days  
Cooling Degree Days 0    
Month to date cooling degree days  
Year to date cooling degree days  
Moisture  
Dew Point 28 °F    
Average Humidity 65    
Maximum Humidity 75    
Minimum Humidity 55    
Precipitation  
Precipitation 0.00 in - 4.12 in (1971)
Month to date precipitation  
Year to date precipitation  
Sea Level Pressure  
Sea Level Pressure 30.06 in    
Wind  
Wind Speed 8 mph (WNW)    
Max Wind Speed 13 mph    
Max Gust Speed 20 mph    
Visibility 10 miles    
Events      
T = Trace of Precipitation, MM = Missing Value Source: NWS Daily Summary

Daily Weather History Graph

Daily Weather History Graph

Search for Another Location

Airport:

Trip Planner

Search our weather history database for the weather conditions in past years. The results will help you decide how hot, cold, wet, or windy it might be!

Date:

Astronomy

Mar. 02, 2013 Rise Set
Actual Time 6:10 AM CST 5:42 PM CST
Civil Twilight 5:45 AM CST 6:06 PM CST
Nautical Twilight 5:16 AM CST 6:35 PM CST
Astronomical Twilight 4:48 AM CST 7:04 PM CST
Moon 11:00 PM CST 8:56 AM CST
Length of Visible Light 12h 21m
Length of Day
11h 31m
Waning Gibbous, 74% of the Moon is Illuminated
Mar 2
Waning Gibbous
Mar 4
Last Quarter
Mar 11
New
Mar 19
First Quarter
Mar 27
Full

Hourly Weather History & Observations

Time (CST) Temp. Windchill Dew Point Humidity Pressure Visibility Wind Dir Wind Speed Gust Speed Precip Events Conditions
12:15 AM 39.6 °F 33.5 °F 29.1 °F 66% 30.06 in 10.0 mi WNW 9.2 mph - N/A   Overcast
12:35 AM 39.6 °F 34.0 °F 28.9 °F 66% 30.05 in 10.0 mi WNW 8.1 mph - N/A   Overcast
1:15 AM 39.6 °F 34.7 °F 28.4 °F 64% 30.04 in 10.0 mi WNW 6.9 mph - N/A   Overcast
1:35 AM 39.6 °F 35.4 °F 28.4 °F 64% 30.04 in 10.0 mi WNW 5.8 mph - N/A   Overcast
1:55 AM 39.6 °F 35.4 °F 28.8 °F 65% 30.04 in 10.0 mi NW 5.8 mph - N/A   Overcast
2:15 AM 39.6 °F 34.7 °F 28.9 °F 66% 30.03 in 10.0 mi WNW 6.9 mph - N/A   Overcast
2:35 AM 39.6 °F 35.4 °F 28.8 °F 65% 30.03 in 10.0 mi NW 5.8 mph - N/A   Overcast
2:55 AM 39.6 °F 35.4 °F 28.9 °F 66% 30.02 in 10.0 mi NW 5.8 mph - N/A   Overcast
3:15 AM 39.6 °F 33.5 °F 29.1 °F 66% 30.02 in 10.0 mi NNW 9.2 mph - N/A   Overcast
3:35 AM 39.6 °F 36.3 °F 29.3 °F 67% 30.02 in 10.0 mi NW 4.6 mph - N/A   Overcast
3:55 AM 39.6 °F 35.4 °F 29.5 °F 67% 30.02 in 10.0 mi WNW 5.8 mph - N/A   Overcast
4:15 AM 39.6 °F 34.7 °F 29.5 °F 67% 30.02 in 10.0 mi NW 6.9 mph - N/A   Overcast
4:35 AM 39.6 °F 34.7 °F 30.2 °F 69% 30.02 in 10.0 mi NW 6.9 mph - N/A   Overcast
4:55 AM 39.6 °F 35.4 °F 30.4 °F 70% 30.03 in 10.0 mi WNW 5.8 mph - N/A   Mostly Cloudy
5:15 AM 37.9 °F 32.7 °F 29.3 °F 71% 30.03 in 10.0 mi WNW 6.9 mph - N/A   Overcast
5:35 AM 37.6 °F 33.1 °F 29.1 °F 72% 30.03 in 10.0 mi WNW 5.8 mph - N/A   Overcast
6:15 AM 37.0 °F 33.3 °F 29.8 °F 75% 30.04 in 10.0 mi WNW 4.6 mph - N/A   Overcast
6:35 AM 37.0 °F 31.0 °F 29.3 °F 74% 30.04 in 10.0 mi WNW 8.1 mph - N/A   Overcast
6:55 AM 37.6 °F 33.1 °F 29.5 °F 73% 30.05 in 10.0 mi WNW 5.8 mph - N/A   Overcast
7:15 AM 37.6 °F 32.3 °F 29.8 °F 74% 30.06 in 10.0 mi WNW 6.9 mph - N/A   Mostly Cloudy
7:35 AM 37.4 °F 31.4 °F 30.0 °F 75% 30.06 in 7.0 mi WNW 8.1 mph - N/A   Mostly Cloudy
7:55 AM 37.6 °F 31.0 °F 30.0 °F 74% 30.07 in 10.0 mi WNW 9.2 mph - N/A   Overcast
8:15 AM 39.6 °F 36.3 °F 31.8 °F 74% 30.07 in 10.0 mi WNW 4.6 mph - N/A   Overcast
8:35 AM 39.6 °F 33.5 °F 31.3 °F 72% 30.07 in 10.0 mi WNW 9.2 mph - N/A   Overcast
8:55 AM 39.6 °F 35.4 °F 32.0 °F 74% 30.08 in 10.0 mi WNW 5.8 mph - N/A   Overcast
9:15 AM 39.6 °F 33.5 °F 31.3 °F 72% 30.07 in 10.0 mi WNW 9.2 mph - N/A   Overcast
9:35 AM 39.6 °F 35.4 °F 30.2 °F 69% 30.07 in 10.0 mi WNW 5.8 mph - N/A   Overcast
9:55 AM 39.6 °F 33.5 °F 30.0 °F 69% 30.08 in 10.0 mi WNW 9.2 mph - N/A   Overcast
10:15 AM 39.6 °F 33.0 °F 29.1 °F 66% 30.08 in 10.0 mi WNW 10.4 mph - N/A   Overcast
10:35 AM 41.4 °F 34.3 °F 29.3 °F 62% 30.07 in 10.0 mi West 12.7 mph 17.3 mph N/A   Mostly Cloudy
10:55 AM 41.0 °F 35.8 °F 27.1 °F 58% 30.07 in 10.0 mi West 8.1 mph - N/A   Overcast
11:15 AM 41.0 °F 35.8 °F 27.7 °F 59% 30.07 in 10.0 mi WNW 8.1 mph 17.3 mph N/A   Overcast
11:35 AM 41.0 °F 34.7 °F 28.2 °F 60% 30.07 in 10.0 mi West 10.4 mph - N/A   Overcast
11:55 AM 41.0 °F 34.7 °F 26.8 °F 57% 30.07 in 10.0 mi West 10.4 mph 17.3 mph N/A   Overcast
12:15 PM 39.6 °F 33.5 °F 29.3 °F 67% 30.07 in 7.0 mi WNW 9.2 mph 19.6 mph N/A   Unknown
12:35 PM 40.3 °F 35.5 °F 29.3 °F 65% 30.05 in 10.0 mi WNW 6.9 mph - N/A   Mostly Cloudy
12:55 PM 41.0 °F 34.7 °F 28.4 °F 61% 30.04 in 10.0 mi WNW 10.4 mph 17.3 mph N/A   Mostly Cloudy
1:15 PM 41.0 °F 35.8 °F 26.1 °F 55% 30.04 in 10.0 mi WNW 8.1 mph - N/A   Mostly Cloudy
1:35 PM 42.1 °F 35.7 °F 26.8 °F 55% 30.04 in 10.0 mi NW 11.5 mph - N/A   Mostly Cloudy
1:55 PM 40.3 °F 33.4 °F 28.8 °F 63% 30.04 in 10.0 mi WNW 11.5 mph 18.4 mph N/A   Mostly Cloudy
2:15 PM 39.6 °F 33.5 °F 28.6 °F 65% 30.04 in 10.0 mi NW 9.2 mph - N/A   Unknown
2:35 PM 39.6 °F 35.4 °F 28.4 °F 64% 30.04 in 10.0 mi WNW 5.8 mph - N/A   Overcast
2:55 PM 39.6 °F 34.0 °F 29.3 °F 67% 30.05 in 10.0 mi West 8.1 mph - N/A   Mostly Cloudy
3:15 PM 39.6 °F 33.5 °F 30.2 °F 69% 30.05 in 10.0 mi NW 9.2 mph 17.3 mph N/A   Overcast
3:35 PM 39.6 °F 33.5 °F 29.1 °F 66% 30.05 in 10.0 mi NW 9.2 mph - N/A   Overcast
3:55 PM 39.6 °F 33.5 °F 27.5 °F 62% 30.05 in 10.0 mi NNW 9.2 mph - N/A   Mostly Cloudy
4:15 PM 40.3 °F 33.9 °F 25.7 °F 56% 30.05 in 10.0 mi WNW 10.4 mph 17.3 mph N/A   Overcast
4:35 PM 40.1 °F 35.3 °F 25.3 °F 56% 30.05 in 10.0 mi NW 6.9 mph - N/A   Overcast
4:55 PM 39.6 °F 34.7 °F 24.8 °F 56% 30.06 in 10.0 mi WNW 6.9 mph - N/A   Overcast
5:15 PM 39.6 °F 34.7 °F 25.5 °F 57% 30.06 in 10.0 mi WNW 6.9 mph - N/A   Overcast
5:35 PM 39.6 °F 35.4 °F 25.5 °F 57% 30.07 in 10.0 mi WNW 5.8 mph - N/A   Overcast
5:55 PM 39.6 °F 35.4 °F 25.5 °F 57% 30.08 in 10.0 mi NW 5.8 mph - N/A   Overcast
6:15 PM 39.6 °F 34.0 °F 24.8 °F 56% 30.09 in 10.0 mi NW 8.1 mph - N/A   Overcast
6:35 PM 39.6 °F 33.0 °F 24.8 °F 56% 30.09 in 10.0 mi NW 10.4 mph - N/A   Overcast
6:55 PM 39.6 °F 33.5 °F 25.0 °F 56% 30.09 in 10.0 mi NW 9.2 mph - N/A   Overcast
7:15 PM 39.6 °F 34.7 °F 25.7 °F 58% 30.10 in 10.0 mi NW 6.9 mph - N/A   Overcast
7:35 PM 39.6 °F 33.5 °F 26.4 °F 59% 30.10 in 10.0 mi NW 9.2 mph - N/A   Overcast
7:55 PM 39.6 °F 34.0 °F 27.1 °F 61% 30.10 in 10.0 mi WNW 8.1 mph - N/A   Overcast
8:15 PM 39.6 °F 34.0 °F 27.9 °F 63% 30.10 in 10.0 mi NW 8.1 mph - N/A   Overcast
8:35 PM 39.6 °F 33.5 °F 28.4 °F 64% 30.11 in 10.0 mi NNW 9.2 mph - N/A   Overcast
8:55 PM 39.6 °F 34.7 °F 28.8 °F 65% 30.11 in 10.0 mi NW 6.9 mph - N/A   Overcast
9:15 PM 38.8 °F 33.2 °F 28.6 °F 67% 30.11 in 10.0 mi NW 8.1 mph - N/A   Overcast
9:35 PM 37.8 °F 31.8 °F 27.7 °F 67% 30.11 in 10.0 mi NW 8.1 mph - N/A   Overcast
9:55 PM 37.6 °F 32.3 °F 27.5 °F 67% 30.10 in 10.0 mi NW 6.9 mph - N/A   Overcast
10:15 PM 37.6 °F 31.6 °F 27.3 °F 66% 30.11 in 10.0 mi WNW 8.1 mph - N/A   Overcast
10:35 PM 37.4 °F 29.8 °F 27.1 °F 66% 30.10 in 10.0 mi NW 11.5 mph - N/A   Overcast
10:55 PM 37.0 °F 32.4 °F 27.0 °F 67% 30.10 in 10.0 mi WNW 5.8 mph - N/A   Mostly Cloudy
11:15 PM 37.0 °F 29.3 °F 27.3 °F 68% 30.10 in 10.0 mi WNW 11.5 mph 17.3 mph N/A   Overcast
11:35 PM 37.0 °F 28.9 °F 27.5 °F 68% 30.10 in 10.0 mi NW 12.7 mph 18.4 mph N/A   Mostly Cloudy
11:55 PM 37.0 °F 29.8 °F 27.7 °F 69% 30.10 in 10.0 mi NW 10.4 mph - N/A   Mostly Cloudy